sensor_id;sensor_type;location;lat;lon;timestamp;pressure;altitude;pressure_sealevel;temperature;humidity
50292;BME280;36190;54.980;73.388;2023-04-08T00:02:24;101575.00;;;-7.94;43.41
50292;BME280;36190;54.980;73.388;2023-04-08T00:04:51;101581.06;;;-7.95;43.58
50292;BME280;36190;54.980;73.388;2023-04-08T00:07:19;101575.91;;;-7.97;43.73
50292;BME280;36190;54.980;73.388;2023-04-08T00:09:46;101575.03;;;-7.97;43.97
50292;BME280;36190;54.980;73.388;2023-04-08T00:12:13;101577.63;;;-7.97;43.99
50292;BME280;36190;54.980;73.388;2023-04-08T00:14:42;101586.31;;;-8.02;44.09
50292;BME280;36190;54.980;73.388;2023-04-08T00:17:10;101582.91;;;-8.05;44.11
50292;BME280;36190;54.980;73.388;2023-04-08T00:19:37;101576.91;;;-8.07;44.20
50292;BME280;36190;54.980;73.388;2023-04-08T00:22:05;101582.09;;;-8.09;44.19
50292;BME280;36190;54.980;73.388;2023-04-08T00:24:33;101570.03;;;-8.10;44.33
50292;BME280;36190;54.980;73.388;2023-04-08T00:27:00;101579.50;;;-8.10;44.54
50292;BME280;36190;54.980;73.388;2023-04-08T00:29:28;101576.97;;;-8.12;44.73
50292;BME280;36190;54.980;73.388;2023-04-08T00:31:57;101581.28;;;-8.12;44.90
50292;BME280;36190;54.980;73.388;2023-04-08T00:34:25;101587.31;;;-8.12;44.69
50292;BME280;36190;54.980;73.388;2023-04-08T00:36:52;101579.56;;;-8.12;44.70
50292;BME280;36190;54.980;73.388;2023-04-08T00:39:19;101576.09;;;-8.11;45.02
50292;BME280;36190;54.980;73.388;2023-04-08T00:41:47;101572.63;;;-8.10;44.97
50292;BME280;36190;54.980;73.388;2023-04-08T00:44:14;101573.50;;;-8.11;44.87
50292;BME280;36190;54.980;73.388;2023-04-08T00:46:42;101576.09;;;-8.11;44.91
50292;BME280;36190;54.980;73.388;2023-04-08T00:49:11;101574.38;;;-8.13;44.96
50292;BME280;36190;54.980;73.388;2023-04-08T00:51:39;101569.22;;;-8.15;45.22
50292;BME280;36190;54.980;73.388;2023-04-08T00:54:06;101566.63;;;-8.15;45.14
50292;BME280;36190;54.980;73.388;2023-04-08T00:56:34;101565.78;;;-8.16;45.17
50292;BME280;36190;54.980;73.388;2023-04-08T00:59:02;101568.38;;;-8.17;44.99
50292;BME280;36190;54.980;73.388;2023-04-08T01:01:33;101570.06;;;-8.13;45.37
50292;BME280;36190;54.980;73.388;2023-04-08T01:04:08;101569.16;;;-8.09;45.03
50292;BME280;36190;54.980;73.388;2023-04-08T01:06:47;101571.63;;;-7.99;45.19
50292;BME280;36190;54.980;73.388;2023-04-08T01:09:18;101569.91;;;-8.01;44.96
50292;BME280;36190;54.980;73.388;2023-04-08T01:11:48;101570.78;;;-8.00;45.04
50292;BME280;36190;54.980;73.388;2023-04-08T01:14:20;101581.09;;;-7.98;45.36
50292;BME280;36190;54.980;73.388;2023-04-08T01:16:50;101578.50;;;-7.98;44.98
50292;BME280;36190;54.980;73.388;2023-04-08T01:19:23;101553.66;;;-8.13;45.10
50292;BME280;36190;54.980;73.388;2023-04-08T01:21:59;101585.31;;;-7.91;45.00
50292;BME280;36190;54.980;73.388;2023-04-08T01:24:30;101559.50;;;-7.97;44.95
50292;BME280;36190;54.980;73.388;2023-04-08T01:27:02;101585.19;;;-7.82;44.90
50292;BME280;36190;54.980;73.388;2023-04-08T01:29:33;101585.13;;;-7.76;44.79
50292;BME280;36190;54.980;73.388;2023-04-08T01:32:02;101580.00;;;-7.79;44.82
50292;BME280;36190;54.980;73.388;2023-04-08T01:34:31;101551.69;;;-7.94;44.80
50292;BME280;36190;54.980;73.388;2023-04-08T01:37:01;101580.75;;;-7.70;44.69
50292;BME280;36190;54.980;73.388;2023-04-08T01:39:29;101585.00;;;-7.66;44.60
50292;BME280;36190;54.980;73.388;2023-04-08T01:41:57;101581.50;;;-7.62;44.42
50292;BME280;36190;54.980;73.388;2023-04-08T01:44:29;101580.47;;;-7.52;44.32
50292;BME280;36190;54.980;73.388;2023-04-08T01:46:58;101580.31;;;-7.39;44.18
50292;BME280;36190;54.980;73.388;2023-04-08T01:49:26;101586.13;;;-7.25;44.06
50292;BME280;36190;54.980;73.388;2023-04-08T01:51:56;101591.19;;;-7.17;43.87
50292;BME280;36190;54.980;73.388;2023-04-08T01:54:25;101582.53;;;-7.18;43.74
50292;BME280;36190;54.980;73.388;2023-04-08T01:56:53;101579.06;;;-7.16;43.71
50292;BME280;36190;54.980;73.388;2023-04-08T01:59:23;101585.78;;;-7.05;43.84
50292;BME280;36190;54.980;73.388;2023-04-08T02:01:58;101594.28;;;-6.95;43.62
50292;BME280;36190;54.980;73.388;2023-04-08T02:04:27;101598.50;;;-6.87;43.54
50292;BME280;36190;54.980;73.388;2023-04-08T02:06:55;101598.31;;;-6.77;43.31
50292;BME280;36190;54.980;73.388;2023-04-08T02:09:24;101588.75;;;-6.73;43.18
50292;BME280;36190;54.980;73.388;2023-04-08T02:11:52;101592.81;;;-6.59;43.00
50292;BME280;36190;54.980;73.388;2023-04-08T02:14:19;101599.59;;;-6.52;42.86
50292;BME280;36190;54.980;73.388;2023-04-08T02:16:51;101586.72;;;-6.58;42.95
50292;BME280;36190;54.980;73.388;2023-04-08T02:19:25;101596.25;;;-6.57;43.11
50292;BME280;36190;54.980;73.388;2023-04-08T02:21:54;101602.31;;;-6.58;43.30
50292;BME280;36190;54.980;73.388;2023-04-08T02:24:24;101597.13;;;-6.58;43.19
50292;BME280;36190;54.980;73.388;2023-04-08T02:26:54;101593.69;;;-6.60;43.43
50292;BME280;36190;54.980;73.388;2023-04-08T02:29:23;101593.69;;;-6.60;43.43
50292;BME280;36190;54.980;73.388;2023-04-08T02:31:51;101590.13;;;-6.55;43.78
50292;BME280;36190;54.980;73.388;2023-04-08T02:34:21;101596.84;;;-6.43;43.77
50292;BME280;36190;54.980;73.388;2023-04-08T02:36:51;101601.84;;;-6.33;43.62
50292;BME280;36190;54.980;73.388;2023-04-08T02:39:18;101602.63;;;-6.28;43.58
50292;BME280;36190;54.980;73.388;2023-04-08T02:41:46;101605.03;;;-6.19;43.68
50292;BME280;36190;54.980;73.388;2023-04-08T02:44:13;101594.59;;;-6.16;43.54
50292;BME280;36190;54.980;73.388;2023-04-08T02:46:40;101599.81;;;-6.16;43.78
50292;BME280;36190;54.980;73.388;2023-04-08T02:49:08;101600.63;;;-6.14;43.76
50292;BME280;36190;54.980;73.388;2023-04-08T02:51:37;101598.94;;;-6.16;43.88
50292;BME280;36190;54.980;73.388;2023-04-08T02:54:04;101598.03;;;-6.14;44.19
50292;BME280;36190;54.980;73.388;2023-04-08T02:56:32;101596.16;;;-6.07;43.97
50292;BME280;36190;54.980;73.388;2023-04-08T02:58:59;101602.91;;;-6.00;43.94
50292;BME280;36190;54.980;73.388;2023-04-08T03:01:28;101598.50;;;-5.96;43.88
50292;BME280;36190;54.980;73.388;2023-04-08T03:03:55;101611.41;;;-5.91;43.74
50292;BME280;36190;54.980;73.388;2023-04-08T03:06:23;101600.19;;;-5.94;43.58
50292;BME280;36190;54.980;73.388;2023-04-08T03:08:53;101601.91;;;-5.94;43.46
50292;BME280;36190;54.980;73.388;2023-04-08T03:11:20;101602.88;;;-5.98;43.00
50292;BME280;36190;54.980;73.388;2023-04-08T03:13:48;101604.03;;;-6.10;42.94
50292;BME280;36190;54.980;73.388;2023-04-08T03:16:15;101600.50;;;-6.08;42.90
50292;BME280;36190;54.980;73.388;2023-04-08T03:18:43;101595.22;;;-6.04;42.81
50292;BME280;36190;54.980;73.388;2023-04-08T03:21:10;101600.31;;;-6.01;42.81
50292;BME280;36190;54.980;73.388;2023-04-08T03:23:38;101595.06;;;-5.97;42.58
50292;BME280;36190;54.980;73.388;2023-04-08T03:26:06;101603.56;;;-5.88;42.51
50292;BME280;36190;54.980;73.388;2023-04-08T03:28:34;101590.59;;;-5.90;42.46
50292;BME280;36190;54.980;73.388;2023-04-08T03:31:02;101586.28;;;-5.91;42.37
50292;BME280;36190;54.980;73.388;2023-04-08T03:33:30;101589.59;;;-5.86;42.28
50292;BME280;36190;54.980;73.388;2023-04-08T03:35:57;101583.34;;;-5.75;42.30
50292;BME280;36190;54.980;73.388;2023-04-08T03:38:25;101579.66;;;-5.65;42.03
50292;BME280;36190;54.980;73.388;2023-04-08T03:40:52;101576.03;;;-5.58;41.92
50292;BME280;36190;54.980;73.388;2023-04-08T03:43:21;101577.81;;;-5.60;41.76
50292;BME280;36190;54.980;73.388;2023-04-08T03:45:50;101583.00;;;-5.60;41.88
50292;BME280;36190;54.980;73.388;2023-04-08T03:48:17;101586.44;;;-5.58;41.68
50292;BME280;36190;54.980;73.388;2023-04-08T03:50:45;101577.75;;;-5.58;41.46
50292;BME280;36190;54.980;73.388;2023-04-08T03:53:12;101582.22;;;-5.63;41.61
50292;BME280;36190;54.980;73.388;2023-04-08T03:55:40;101574.44;;;-5.65;41.52
50292;BME280;36190;54.980;73.388;2023-04-08T03:58:07;101566.66;;;-5.65;41.52
50292;BME280;36190;54.980;73.388;2023-04-08T04:00:36;101575.00;;;-5.50;41.66
50292;BME280;36190;54.980;73.388;2023-04-08T04:03:04;101578.09;;;-5.34;41.62
50292;BME280;36190;54.980;73.388;2023-04-08T04:05:31;101577.81;;;-5.22;41.39
50292;BME280;36190;54.980;73.388;2023-04-08T04:07:59;101561.97;;;-5.13;41.34
50292;BME280;36190;54.980;73.388;2023-04-08T04:10:26;101567.84;;;-5.06;41.33
50292;BME280;36190;54.980;73.388;2023-04-08T04:12:54;101575.59;;;-5.03;41.10
50292;BME280;36190;54.980;73.388;2023-04-08T04:15:21;101565.34;;;-5.09;41.27
50292;BME280;36190;54.980;73.388;2023-04-08T04:17:50;101574.84;;;-5.08;41.47
50292;BME280;36190;54.980;73.388;2023-04-08T04:20:18;101563.53;;;-5.05;41.21
50292;BME280;36190;54.980;73.388;2023-04-08T04:22:46;101568.53;;;-4.98;41.05
50292;BME280;36190;54.980;73.388;2023-04-08T04:25:14;101553.81;;;-4.99;40.90
50292;BME280;36190;54.980;73.388;2023-04-08T04:27:41;101560.75;;;-4.99;40.66
50292;BME280;36190;54.980;73.388;2023-04-08T04:30:09;101555.59;;;-5.01;40.48
50292;BME280;36190;54.980;73.388;2023-04-08T04:32:40;101553.66;;;-4.92;40.42
50292;BME280;36190;54.980;73.388;2023-04-08T04:35:09;101560.41;;;-4.85;40.33
50292;BME280;36190;54.980;73.388;2023-04-08T04:37:36;101552.38;;;-4.77;40.23
50292;BME280;36190;54.980;73.388;2023-04-08T04:40:05;101540.00;;;-4.69;39.82
50292;BME280;36190;54.980;73.388;2023-04-08T04:42:33;101541.66;;;-4.65;39.58
50292;BME280;36190;54.980;73.388;2023-04-08T04:45:01;101539.69;;;-4.57;39.33
50292;BME280;36190;54.980;73.388;2023-04-08T04:47:29;101527.97;;;-4.42;39.34
50292;BME280;36190;54.980;73.388;2023-04-08T04:49:57;101534.63;;;-4.31;39.28
50292;BME280;36190;54.980;73.388;2023-04-08T04:52:26;101541.53;;;-4.29;39.29
50292;BME280;36190;54.980;73.388;2023-04-08T04:54:55;101542.16;;;-4.20;39.39
50292;BME280;36190;54.980;73.388;2023-04-08T04:57:23;101537.72;;;-4.17;39.26
50292;BME280;36190;54.980;73.388;2023-04-08T04:59:50;101529.88;;;-4.17;39.38
50292;BME280;36190;54.980;73.388;2023-04-08T05:02:18;101519.41;;;-4.15;39.44
50292;BME280;36190;54.980;73.388;2023-04-08T05:04:45;101531.28;;;-4.05;39.54
50292;BME280;36190;54.980;73.388;2023-04-08T05:07:13;101518.22;;;-4.03;39.33
50292;BME280;36190;54.980;73.388;2023-04-08T05:09:42;101520.72;;;-4.00;39.13
50292;BME280;36190;54.980;73.388;2023-04-08T05:12:10;101519.72;;;-3.96;39.17
50292;BME280;36190;54.980;73.388;2023-04-08T05:14:37;101507.38;;;-3.91;39.13
50292;BME280;36190;54.980;73.388;2023-04-08T05:17:06;101504.78;;;-3.91;39.02
50292;BME280;36190;54.980;73.388;2023-04-08T05:19:33;101510.72;;;-3.85;38.97
50292;BME280;36190;54.980;73.388;2023-04-08T05:22:00;101503.69;;;-3.83;38.94
50292;BME280;36190;54.980;73.388;2023-04-08T05:24:28;101507.81;;;-3.76;38.87
50292;BME280;36190;54.980;73.388;2023-04-08T05:26:57;101499.81;;;-3.70;38.91
50292;BME280;36190;54.980;73.388;2023-04-08T05:29:24;101504.84;;;-3.64;38.83
50292;BME280;36190;54.980;73.388;2023-04-08T05:31:52;101494.28;;;-3.61;38.63
50292;BME280;36190;54.980;73.388;2023-04-08T05:34:21;101492.66;;;-3.65;38.88
50292;BME280;36190;54.980;73.388;2023-04-08T05:36:49;101482.06;;;-3.59;38.91
50292;BME280;36190;54.980;73.388;2023-04-08T05:39:17;101488.66;;;-3.48;38.81
50292;BME280;36190;54.980;73.388;2023-04-08T05:41:45;101485.06;;;-3.44;38.80
50292;BME280;36190;54.980;73.388;2023-04-08T05:44:14;101486.56;;;-3.37;38.63
50292;BME280;36190;54.980;73.388;2023-04-08T05:46:41;101486.47;;;-3.34;38.41
50292;BME280;36190;54.980;73.388;2023-04-08T05:49:09;101476.03;;;-3.34;38.33
50292;BME280;36190;54.980;73.388;2023-04-08T05:51:36;101474.00;;;-3.25;38.38
50292;BME280;36190;54.980;73.388;2023-04-08T05:54:04;101492.66;;;-3.11;38.30
50292;BME280;36190;54.980;73.388;2023-04-08T05:56:32;101485.91;;;-3.16;38.00
50292;BME280;36190;54.980;73.388;2023-04-08T05:58:59;101468.22;;;-3.35;38.08
50292;BME280;36190;54.980;73.388;2023-04-08T06:01:28;101470.47;;;-3.24;38.42
50292;BME280;36190;54.980;73.388;2023-04-08T06:03:56;101461.34;;;-3.11;38.25
50292;BME280;36190;54.980;73.388;2023-04-08T06:06:23;101469.53;;;-2.96;38.26
50292;BME280;36190;54.980;73.388;2023-04-08T06:08:51;101466.56;;;-2.85;38.00
50292;BME280;36190;54.980;73.388;2023-04-08T06:11:19;101451.50;;;-2.79;37.77
50292;BME280;36190;54.980;73.388;2023-04-08T06:13:46;101453.34;;;-2.81;37.92
50292;BME280;36190;54.980;73.388;2023-04-08T06:16:15;101453.00;;;-2.71;37.87
50292;BME280;36190;54.980;73.388;2023-04-08T06:18:44;101458.22;;;-2.71;37.81
50292;BME280;36190;54.980;73.388;2023-04-08T06:21:12;101439.44;;;-2.83;37.93
50292;BME280;36190;54.980;73.388;2023-04-08T06:23:39;101429.91;;;-2.84;38.11
50292;BME280;36190;54.980;73.388;2023-04-08T06:26:06;101420.69;;;-2.69;38.31
50292;BME280;36190;54.980;73.388;2023-04-08T06:28:34;101430.56;;;-2.53;38.17
50292;BME280;36190;54.980;73.388;2023-04-08T06:31:01;101437.50;;;-2.52;38.08
50292;BME280;36190;54.980;73.388;2023-04-08T06:33:29;101432.50;;;-2.58;38.32
50292;BME280;36190;54.980;73.388;2023-04-08T06:36:05;101417.66;;;-2.58;38.39
50292;BME280;36190;54.980;73.388;2023-04-08T06:38:32;101411.41;;;-2.54;38.51
50292;BME280;36190;54.980;73.388;2023-04-08T06:41:03;101420.22;;;-2.34;38.57
50292;BME280;36190;54.980;73.388;2023-04-08T06:43:33;101420.91;;;-2.29;38.53
50292;BME280;36190;54.980;73.388;2023-04-08T06:46:02;101411.16;;;-2.24;38.59
50292;BME280;36190;54.980;73.388;2023-04-08T06:48:29;101420.38;;;-2.15;38.44
50292;BME280;36190;54.980;73.388;2023-04-08T06:50:58;101409.09;;;-2.15;38.17
50292;BME280;36190;54.980;73.388;2023-04-08T06:53:27;101408.16;;;-2.14;38.42
50292;BME280;36190;54.980;73.388;2023-04-08T06:55:56;101413.06;;;-2.07;38.32
50292;BME280;36190;54.980;73.388;2023-04-08T06:58:23;101392.28;;;-2.10;38.28
50292;BME280;36190;54.980;73.388;2023-04-08T07:00:52;101379.03;;;-2.05;38.36
50292;BME280;36190;54.980;73.388;2023-04-08T07:03:20;101396.59;;;-1.86;38.25
50292;BME280;36190;54.980;73.388;2023-04-08T07:05:48;101389.50;;;-1.84;38.08
50292;BME280;36190;54.980;73.388;2023-04-08T07:08:15;101387.16;;;-1.90;38.09
50292;BME280;36190;54.980;73.388;2023-04-08T07:10:44;101390.56;;;-1.88;38.18
50292;BME280;36190;54.980;73.388;2023-04-08T07:13:11;101385.81;;;-1.78;38.15
50292;BME280;36190;54.980;73.388;2023-04-08T07:15:40;101368.13;;;-1.73;38.23
50292;BME280;36190;54.980;73.388;2023-04-08T07:18:07;101366.44;;;-1.74;38.29
50292;BME280;36190;54.980;73.388;2023-04-08T07:20:35;101358.16;;;-1.63;38.25
50292;BME280;36190;54.980;73.388;2023-04-08T07:23:03;101369.91;;;-1.53;38.09
50292;BME280;36190;54.980;73.388;2023-04-08T07:25:32;101346.34;;;-1.53;38.27
50292;BME280;36190;54.980;73.388;2023-04-08T07:28:01;101357.53;;;-1.29;38.32
50292;BME280;36190;54.980;73.388;2023-04-08T07:30:29;101370.16;;;-1.18;38.00
50292;BME280;36190;54.980;73.388;2023-04-08T07:32:56;101345.25;;;-1.07;38.02
50292;BME280;36190;54.980;73.388;2023-04-08T07:35:24;101349.66;;;-0.89;37.69
50292;BME280;36190;54.980;73.388;2023-04-08T07:37:51;101351.34;;;-0.88;37.53
50292;BME280;36190;54.980;73.388;2023-04-08T07:40:20;101344.19;;;-0.84;37.88
50292;BME280;36190;54.980;73.388;2023-04-08T07:42:47;101340.16;;;-0.72;37.49
50292;BME280;36190;54.980;73.388;2023-04-08T07:45:16;101362.22;;;-0.57;37.37
50292;BME280;36190;54.980;73.388;2023-04-08T07:47:44;101335.91;;;-0.56;37.57
50292;BME280;36190;54.980;73.388;2023-04-08T07:50:12;101328.41;;;-0.44;37.57
50292;BME280;36190;54.980;73.388;2023-04-08T07:52:39;101333.94;;;-0.50;37.46
50292;BME280;36190;54.980;73.388;2023-04-08T07:55:08;101325.34;;;-0.54;37.67
50292;BME280;36190;54.980;73.388;2023-04-08T07:57:36;101329.94;;;-0.40;37.52
50292;BME280;36190;54.980;73.388;2023-04-08T08:00:04;101334.59;;;-0.28;37.52
50292;BME280;36190;54.980;73.388;2023-04-08T08:02:34;101327.78;;;-0.32;37.47
50292;BME280;36190;54.980;73.388;2023-04-08T08:05:02;101336.50;;;-0.31;37.44
50292;BME280;36190;54.980;73.388;2023-04-08T08:07:29;101331.09;;;-0.28;37.14
50292;BME280;36190;54.980;73.388;2023-04-08T08:09:57;101319.84;;;-0.30;37.43
50292;BME280;36190;54.980;73.388;2023-04-08T08:12:24;101325.06;;;-0.11;37.31
50292;BME280;36190;54.980;73.388;2023-04-08T08:14:52;101316.41;;;0.05;37.18
50292;BME280;36190;54.980;73.388;2023-04-08T08:17:23;101319.16;;;0.19;37.04
50292;BME280;36190;54.980;73.388;2023-04-08T08:19:57;101312.84;;;0.23;36.40
50292;BME280;36190;54.980;73.388;2023-04-08T08:22:24;101302.81;;;0.32;36.44
50292;BME280;36190;54.980;73.388;2023-04-08T08:24:55;101297.69;;;0.46;36.51
50292;BME280;36190;54.980;73.388;2023-04-08T08:27:22;101302.16;;;0.62;36.40
50292;BME280;36190;54.980;73.388;2023-04-08T08:29:50;101281.13;;;0.62;36.36
50292;BME280;36190;54.980;73.388;2023-04-08T08:32:18;101287.78;;;0.85;36.25
50292;BME280;36190;54.980;73.388;2023-04-08T08:34:45;101299.41;;;0.97;35.82
50292;BME280;36190;54.980;73.388;2023-04-08T08:37:14;101299.06;;;1.03;35.92
50292;BME280;36190;54.980;73.388;2023-04-08T08:39:42;101273.03;;;1.15;35.80
50292;BME280;36190;54.980;73.388;2023-04-08T08:42:18;101262.84;;;1.41;35.86
50292;BME280;36190;54.980;73.388;2023-04-08T08:44:46;101273.63;;;1.67;35.53
50292;BME280;36190;54.980;73.388;2023-04-08T08:47:14;101269.56;;;1.77;35.42
50292;BME280;36190;54.980;73.388;2023-04-08T08:49:42;101277.03;;;1.99;35.25
50292;BME280;36190;54.980;73.388;2023-04-08T08:52:11;101278.66;;;2.16;35.17
50292;BME280;36190;54.980;73.388;2023-04-08T08:54:43;101284.16;;;2.28;34.65
50292;BME280;36190;54.980;73.388;2023-04-08T08:57:16;101270.75;;;2.16;34.61
50292;BME280;36190;54.980;73.388;2023-04-08T08:59:45;101258.25;;;2.05;34.92
50292;BME280;36190;54.980;73.388;2023-04-08T09:02:24;101257.97;;;2.25;35.14
50292;BME280;36190;54.980;73.388;2023-04-08T09:04:58;101272.13;;;2.38;34.82
50292;BME280;36190;54.980;73.388;2023-04-08T09:07:27;101268.94;;;2.33;34.93
50292;BME280;36190;54.980;73.388;2023-04-08T09:09:58;101248.03;;;2.44;35.25
50292;BME280;36190;54.980;73.388;2023-04-08T09:12:26;101238.25;;;2.61;35.29
50292;BME280;36190;54.980;73.388;2023-04-08T09:15:06;101239.94;;;2.77;35.38
50292;BME280;36190;54.980;73.388;2023-04-08T09:17:35;101235.38;;;2.93;35.33
50292;BME280;36190;54.980;73.388;2023-04-08T09:20:05;101246.06;;;3.05;35.15
50292;BME280;36190;54.980;73.388;2023-04-08T09:22:34;101239.13;;;3.03;35.33
50292;BME280;36190;54.980;73.388;2023-04-08T09:25:26;101249.53;;;3.20;35.32
50292;BME280;36190;54.980;73.388;2023-04-08T09:27:54;101248.28;;;3.25;35.20
50292;BME280;36190;54.980;73.388;2023-04-08T09:30:23;101243.13;;;3.09;35.12
50292;BME280;36190;54.980;73.388;2023-04-08T09:32:52;101228.78;;;3.00;35.14
50292;BME280;36190;54.980;73.388;2023-04-08T09:35:20;101234.00;;;3.15;35.42
50292;BME280;36190;54.980;73.388;2023-04-08T09:37:48;101230.97;;;3.21;35.26
50292;BME280;36190;54.980;73.388;2023-04-08T09:40:16;101227.97;;;3.13;35.03
50292;BME280;36190;54.980;73.388;2023-04-08T09:42:46;101223.50;;;3.00;34.95
50292;BME280;36190;54.980;73.388;2023-04-08T09:45:16;101220.88;;;2.86;34.94
50292;BME280;36190;54.980;73.388;2023-04-08T09:47:54;101205.47;;;2.80;35.31
50292;BME280;36190;54.980;73.388;2023-04-08T09:50:26;101209.09;;;2.92;35.41
50292;BME280;36190;54.980;73.388;2023-04-08T09:53:00;101187.13;;;2.78;35.84
50292;BME280;36190;54.980;73.388;2023-04-08T09:55:31;101218.41;;;2.70;36.31
50292;BME280;36190;54.980;73.388;2023-04-08T09:58:04;101178.22;;;2.37;36.76
50292;BME280;36190;54.980;73.388;2023-04-08T10:00:38;101195.28;;;2.31;37.28
50292;BME280;36190;54.980;73.388;2023-04-08T10:03:10;101169.41;;;2.09;37.42
50292;BME280;36190;54.980;73.388;2023-04-08T10:05:40;101176.34;;;1.96;37.83
50292;BME280;36190;54.980;73.388;2023-04-08T10:08:09;101192.34;;;1.92;38.23
50292;BME280;36190;54.980;73.388;2023-04-08T10:10:38;101175.03;;;1.88;38.24
50292;BME280;36190;54.980;73.388;2023-04-08T10:13:08;101172.59;;;1.85;38.72
50292;BME280;36190;54.980;73.388;2023-04-08T10:15:37;101184.63;;;1.89;38.86
50292;BME280;36190;54.980;73.388;2023-04-08T10:18:38;101171.53;;;1.88;38.83
50292;BME280;36190;54.980;73.388;2023-04-08T10:21:35;101150.88;;;1.82;39.05
50292;BME280;36190;54.980;73.388;2023-04-08T10:24:06;101148.53;;;1.77;39.37
50292;BME280;36190;54.980;73.388;2023-04-08T10:26:35;101143.75;;;1.98;39.33
50292;BME280;36190;54.980;73.388;2023-04-08T10:32:30;101141.94;;;2.13;39.23
50292;BME280;36190;54.980;73.388;2023-04-08T10:35:06;101141.94;;;2.13;39.37
50292;BME280;36190;54.980;73.388;2023-04-08T10:37:34;101134.41;;;2.07;39.50
50292;BME280;36190;54.980;73.388;2023-04-08T10:40:03;101154.06;;;2.16;39.54
50292;BME280;36190;54.980;73.388;2023-04-08T10:42:31;101131.50;;;2.12;39.65
50292;BME280;36190;54.980;73.388;2023-04-08T10:45:02;101127.38;;;2.08;39.77
50292;BME280;36190;54.980;73.388;2023-04-08T10:47:31;101133.09;;;2.00;40.01
50292;BME280;36190;54.980;73.388;2023-04-08T10:49:58;101181.06;;;2.05;40.13
50292;BME280;36190;54.980;73.388;2023-04-08T10:52:27;101129.53;;;1.86;40.41
50292;BME280;36190;54.980;73.388;2023-04-08T10:54:54;101132.34;;;1.83;40.64
50292;BME280;36190;54.980;73.388;2023-04-08T10:57:26;101128.81;;;1.84;40.85
50292;BME280;36190;54.980;73.388;2023-04-08T10:59:53;101139.59;;;1.94;40.68
50292;BME280;36190;54.980;73.388;2023-04-08T11:02:21;101138.94;;;1.90;40.69
50292;BME280;36190;54.980;73.388;2023-04-08T11:04:53;101137.81;;;1.95;40.75
50292;BME280;36190;54.980;73.388;2023-04-08T11:07:20;101135.47;;;2.04;40.51
50292;BME280;36190;54.980;73.388;2023-04-08T11:09:48;101127.47;;;2.06;40.49
50292;BME280;36190;54.980;73.388;2023-04-08T11:12:15;101119.19;;;2.12;40.54
50292;BME280;36190;54.980;73.388;2023-04-08T11:14:44;101124.34;;;2.28;40.30
50292;BME280;36190;54.980;73.388;2023-04-08T11:17:14;101126.13;;;2.28;40.22
50292;BME280;36190;54.980;73.388;2023-04-08T11:19:42;101119.84;;;2.30;40.27
50292;BME280;36190;54.980;73.388;2023-04-08T11:22:12;101128.00;;;2.40;40.08
50292;BME280;36190;54.980;73.388;2023-04-08T11:24:40;101114.44;;;2.46;40.10
50292;BME280;36190;54.980;73.388;2023-04-08T11:27:08;101118.72;;;2.62;39.91
50292;BME280;36190;54.980;73.388;2023-04-08T11:29:36;101127.13;;;2.54;39.97
50292;BME280;36190;54.980;73.388;2023-04-08T11:32:04;101112.19;;;2.40;39.99
50292;BME280;36190;54.980;73.388;2023-04-08T11:34:38;101116.19;;;2.18;40.57
50292;BME280;36190;54.980;73.388;2023-04-08T11:37:06;101106.69;;;2.01;40.76
50292;BME280;36190;54.980;73.388;2023-04-08T11:39:39;101110.38;;;1.84;41.00
50292;BME280;36190;54.980;73.388;2023-04-08T11:42:08;101117.03;;;1.75;41.10
50292;BME280;36190;54.980;73.388;2023-04-08T11:44:36;101111.94;;;1.58;41.09
50292;BME280;36190;54.980;73.388;2023-04-08T11:47:03;101098.28;;;1.36;41.52
50292;BME280;36190;54.980;73.388;2023-04-08T11:49:43;101075.69;;;1.18;41.92
50292;BME280;36190;54.980;73.388;2023-04-08T11:52:11;101080.41;;;1.13;42.11
50292;BME280;36190;54.980;73.388;2023-04-08T11:54:42;101077.09;;;1.09;42.44
50292;BME280;36190;54.980;73.388;2023-04-08T11:57:09;101077.19;;;1.07;42.61
50292;BME280;36190;54.980;73.388;2023-04-08T11:59:37;101075.09;;;1.43;42.30
50292;BME280;36190;54.980;73.388;2023-04-08T12:02:04;101080.44;;;2.14;41.32
50292;BME280;36190;54.980;73.388;2023-04-08T12:04:32;101079.16;;;2.77;40.50
50292;BME280;36190;54.980;73.388;2023-04-08T12:07:00;101064.50;;;3.39;39.80
50292;BME280;36190;54.980;73.388;2023-04-08T12:09:28;101053.03;;;4.03;38.92
50292;BME280;36190;54.980;73.388;2023-04-08T12:11:57;101058.94;;;4.68;38.09
50292;BME280;36190;54.980;73.388;2023-04-08T12:14:26;101047.31;;;5.07;37.51
50292;BME280;36190;54.980;73.388;2023-04-08T12:16:54;101048.91;;;5.21;37.00
50292;BME280;36190;54.980;73.388;2023-04-08T12:19:21;101043.66;;;5.44;36.71
50292;BME280;36190;54.980;73.388;2023-04-08T12:21:49;101048.59;;;5.60;36.43
50292;BME280;36190;54.980;73.388;2023-04-08T12:24:16;101040.41;;;5.97;36.33
50292;BME280;36190;54.980;73.388;2023-04-08T12:26:44;101034.91;;;6.44;35.57
50292;BME280;36190;54.980;73.388;2023-04-08T12:29:12;101031.03;;;6.81;35.01
50292;BME280;36190;54.980;73.388;2023-04-08T12:31:40;101035.69;;;6.68;34.66
50292;BME280;36190;54.980;73.388;2023-04-08T12:34:07;101031.44;;;6.32;34.98
50292;BME280;36190;54.980;73.388;2023-04-08T12:36:35;101031.03;;;6.04;35.46
50292;BME280;36190;54.980;73.388;2023-04-08T12:39:02;101021.63;;;5.20;36.19
50292;BME280;36190;54.980;73.388;2023-04-08T12:41:30;101028.81;;;4.47;36.91
50292;BME280;36190;54.980;73.388;2023-04-08T12:43:58;101021.41;;;3.77;37.90
50292;BME280;36190;54.980;73.388;2023-04-08T12:46:27;101012.50;;;3.28;38.63
50292;BME280;36190;54.980;73.388;2023-04-08T12:48:54;100991.50;;;3.00;38.89
50292;BME280;36190;54.980;73.388;2023-04-08T12:51:22;101002.34;;;3.09;39.04
50292;BME280;36190;54.980;73.388;2023-04-08T12:53:50;101000.13;;;3.28;38.86
50292;BME280;36190;54.980;73.388;2023-04-08T12:56:19;101004.34;;;3.57;38.71